sensor_id;sensor_type;location;lat;lon;timestamp;P1;durP1;ratioP1;P2;durP2;ratioP2
56269;SDS011;42176;43.240;27.880;2023-05-20T00:02:59;7.55;;;4.95;;
56269;SDS011;42176;43.240;27.880;2023-05-20T00:05:25;10.95;;;4.55;;
56269;SDS011;42176;43.240;27.880;2023-05-20T00:07:50;7.00;;;4.63;;
56269;SDS011;42176;43.240;27.880;2023-05-20T00:10:16;6.57;;;4.55;;
56269;SDS011;42176;43.240;27.880;2023-05-20T00:12:41;6.72;;;4.70;;
56269;SDS011;42176;43.240;27.880;2023-05-20T00:15:07;10.55;;;4.63;;
56269;SDS011;42176;43.240;27.880;2023-05-20T00:17:33;6.05;;;4.07;;
56269;SDS011;42176;43.240;27.880;2023-05-20T00:19:58;6.60;;;4.65;;
56269;SDS011;42176;43.240;27.880;2023-05-20T00:22:24;8.13;;;5.03;;
56269;SDS011;42176;43.240;27.880;2023-05-20T00:24:49;8.20;;;4.95;;
56269;SDS011;42176;43.240;27.880;2023-05-20T00:27:15;6.10;;;4.45;;
56269;SDS011;42176;43.240;27.880;2023-05-20T00:29:40;8.02;;;5.00;;
56269;SDS011;42176;43.240;27.880;2023-05-20T00:32:06;6.75;;;4.90;;
56269;SDS011;42176;43.240;27.880;2023-05-20T00:34:31;9.13;;;4.40;;
56269;SDS011;42176;43.240;27.880;2023-05-20T00:36:57;11.82;;;4.97;;
56269;SDS011;42176;43.240;27.880;2023-05-20T00:39:22;7.45;;;5.32;;
56269;SDS011;42176;43.240;27.880;2023-05-20T00:41:48;10.10;;;4.80;;
56269;SDS011;42176;43.240;27.880;2023-05-20T00:44:13;7.45;;;4.63;;
56269;SDS011;42176;43.240;27.880;2023-05-20T00:46:39;7.57;;;4.93;;
56269;SDS011;42176;43.240;27.880;2023-05-20T00:49:04;6.00;;;4.22;;
56269;SDS011;42176;43.240;27.880;2023-05-20T00:51:30;17.55;;;5.93;;
56269;SDS011;42176;43.240;27.880;2023-05-20T00:53:56;7.45;;;5.03;;
56269;SDS011;42176;43.240;27.880;2023-05-20T00:56:22;10.02;;;4.53;;
56269;SDS011;42176;43.240;27.880;2023-05-20T00:58:49;8.50;;;5.00;;
56269;SDS011;42176;43.240;27.880;2023-05-20T01:01:15;8.73;;;5.07;;
56269;SDS011;42176;43.240;27.880;2023-05-20T01:03:40;6.85;;;4.80;;
56269;SDS011;42176;43.240;27.880;2023-05-20T01:06:06;7.85;;;5.13;;
56269;SDS011;42176;43.240;27.880;2023-05-20T01:08:31;7.43;;;4.82;;
56269;SDS011;42176;43.240;27.880;2023-05-20T01:13:40;7.45;;;4.93;;
56269;SDS011;42176;43.240;27.880;2023-05-20T01:16:09;9.65;;;4.75;;
56269;SDS011;42176;43.240;27.880;2023-05-20T01:18:35;8.57;;;4.85;;
56269;SDS011;42176;43.240;27.880;2023-05-20T01:21:03;9.15;;;4.93;;
56269;SDS011;42176;43.240;27.880;2023-05-20T01:23:32;10.30;;;5.50;;
56269;SDS011;42176;43.240;27.880;2023-05-20T01:26:01;8.35;;;5.25;;
56269;SDS011;42176;43.240;27.880;2023-05-20T01:28:27;8.85;;;5.30;;
56269;SDS011;42176;43.240;27.880;2023-05-20T01:30:55;7.30;;;5.40;;
56269;SDS011;42176;43.240;27.880;2023-05-20T01:33:23;9.57;;;5.25;;
56269;SDS011;42176;43.240;27.880;2023-05-20T01:35:51;7.78;;;4.90;;
56269;SDS011;42176;43.240;27.880;2023-05-20T01:38:17;8.35;;;5.13;;
56269;SDS011;42176;43.240;27.880;2023-05-20T01:40:43;5.60;;;4.70;;
56269;SDS011;42176;43.240;27.880;2023-05-20T01:43:10;8.07;;;4.38;;
56269;SDS011;42176;43.240;27.880;2023-05-20T01:45:39;8.38;;;5.15;;
56269;SDS011;42176;43.240;27.880;2023-05-20T01:48:06;10.32;;;5.13;;
56269;SDS011;42176;43.240;27.880;2023-05-20T01:50:35;11.13;;;4.85;;
56269;SDS011;42176;43.240;27.880;2023-05-20T01:53:00;7.55;;;5.07;;
56269;SDS011;42176;43.240;27.880;2023-05-20T01:55:25;8.77;;;4.30;;
56269;SDS011;42176;43.240;27.880;2023-05-20T01:57:51;6.88;;;4.75;;
56269;SDS011;42176;43.240;27.880;2023-05-20T02:00:16;9.00;;;5.20;;
56269;SDS011;42176;43.240;27.880;2023-05-20T02:02:42;7.18;;;4.95;;
56269;SDS011;42176;43.240;27.880;2023-05-20T02:05:07;5.97;;;4.32;;
56269;SDS011;42176;43.240;27.880;2023-05-20T02:07:33;8.98;;;5.18;;
56269;SDS011;42176;43.240;27.880;2023-05-20T02:09:58;10.48;;;5.50;;
56269;SDS011;42176;43.240;27.880;2023-05-20T02:12:24;7.95;;;4.30;;
56269;SDS011;42176;43.240;27.880;2023-05-20T02:14:50;8.68;;;5.13;;
56269;SDS011;42176;43.240;27.880;2023-05-20T02:17:15;6.20;;;4.35;;
56269;SDS011;42176;43.240;27.880;2023-05-20T02:19:42;6.38;;;4.45;;
56269;SDS011;42176;43.240;27.880;2023-05-20T02:22:08;5.22;;;4.32;;
56269;SDS011;42176;43.240;27.880;2023-05-20T02:24:33;8.25;;;4.38;;
56269;SDS011;42176;43.240;27.880;2023-05-20T02:26:59;6.68;;;4.88;;
56269;SDS011;42176;43.240;27.880;2023-05-20T02:29:25;6.75;;;4.30;;
56269;SDS011;42176;43.240;27.880;2023-05-20T02:31:51;13.27;;;5.22;;
56269;SDS011;42176;43.240;27.880;2023-05-20T02:34:17;8.55;;;4.78;;
56269;SDS011;42176;43.240;27.880;2023-05-20T02:36:43;9.23;;;4.30;;
56269;SDS011;42176;43.240;27.880;2023-05-20T02:39:08;9.07;;;4.78;;
56269;SDS011;42176;43.240;27.880;2023-05-20T02:41:34;7.97;;;4.95;;
56269;SDS011;42176;43.240;27.880;2023-05-20T02:43:59;7.38;;;4.53;;
56269;SDS011;42176;43.240;27.880;2023-05-20T02:46:25;5.65;;;4.13;;
56269;SDS011;42176;43.240;27.880;2023-05-20T02:48:50;8.43;;;4.25;;
56269;SDS011;42176;43.240;27.880;2023-05-20T02:51:16;9.43;;;4.75;;
56269;SDS011;42176;43.240;27.880;2023-05-20T02:53:41;9.98;;;4.80;;
56269;SDS011;42176;43.240;27.880;2023-05-20T02:56:06;9.73;;;4.60;;
56269;SDS011;42176;43.240;27.880;2023-05-20T02:58:33;10.55;;;5.15;;
56269;SDS011;42176;43.240;27.880;2023-05-20T03:00:59;10.75;;;5.07;;
56269;SDS011;42176;43.240;27.880;2023-05-20T03:03:25;9.10;;;4.97;;
56269;SDS011;42176;43.240;27.880;2023-05-20T03:05:51;10.55;;;5.35;;
56269;SDS011;42176;43.240;27.880;2023-05-20T03:08:17;6.97;;;4.85;;
56269;SDS011;42176;43.240;27.880;2023-05-20T03:10:45;9.63;;;5.47;;
56269;SDS011;42176;43.240;27.880;2023-05-20T03:13:10;7.95;;;4.75;;
56269;SDS011;42176;43.240;27.880;2023-05-20T03:15:38;10.15;;;5.00;;
56269;SDS011;42176;43.240;27.880;2023-05-20T03:18:09;7.55;;;4.75;;
56269;SDS011;42176;43.240;27.880;2023-05-20T03:20:35;7.32;;;4.95;;
56269;SDS011;42176;43.240;27.880;2023-05-20T03:23:04;9.05;;;4.95;;
56269;SDS011;42176;43.240;27.880;2023-05-20T03:25:30;9.88;;;5.00;;
56269;SDS011;42176;43.240;27.880;2023-05-20T03:27:55;6.53;;;4.53;;
56269;SDS011;42176;43.240;27.880;2023-05-20T03:30:23;6.72;;;4.97;;
56269;SDS011;42176;43.240;27.880;2023-05-20T03:32:49;9.95;;;4.70;;
56269;SDS011;42176;43.240;27.880;2023-05-20T03:35:15;11.57;;;4.65;;
56269;SDS011;42176;43.240;27.880;2023-05-20T03:37:41;7.38;;;4.97;;
56269;SDS011;42176;43.240;27.880;2023-05-20T03:40:07;10.43;;;4.53;;
56269;SDS011;42176;43.240;27.880;2023-05-20T03:42:34;6.85;;;4.45;;
56269;SDS011;42176;43.240;27.880;2023-05-20T03:45:00;6.10;;;4.22;;
56269;SDS011;42176;43.240;27.880;2023-05-20T03:47:26;6.32;;;3.97;;
56269;SDS011;42176;43.240;27.880;2023-05-20T03:49:52;5.50;;;4.20;;
56269;SDS011;42176;43.240;27.880;2023-05-20T03:52:17;6.25;;;4.10;;
56269;SDS011;42176;43.240;27.880;2023-05-20T03:54:43;6.80;;;3.90;;
56269;SDS011;42176;43.240;27.880;2023-05-20T03:57:08;8.45;;;4.15;;
56269;SDS011;42176;43.240;27.880;2023-05-20T03:59:37;5.60;;;3.90;;
56269;SDS011;42176;43.240;27.880;2023-05-20T04:02:03;10.38;;;4.13;;
56269;SDS011;42176;43.240;27.880;2023-05-20T04:04:29;10.45;;;5.22;;
56269;SDS011;42176;43.240;27.880;2023-05-20T04:06:54;8.95;;;4.43;;
56269;SDS011;42176;43.240;27.880;2023-05-20T04:09:20;7.03;;;4.63;;
56269;SDS011;42176;43.240;27.880;2023-05-20T04:11:46;8.85;;;4.47;;
56269;SDS011;42176;43.240;27.880;2023-05-20T04:14:12;6.70;;;4.30;;
56269;SDS011;42176;43.240;27.880;2023-05-20T04:16:39;6.10;;;4.25;;
56269;SDS011;42176;43.240;27.880;2023-05-20T04:19:04;8.43;;;4.63;;
56269;SDS011;42176;43.240;27.880;2023-05-20T04:21:30;7.32;;;4.28;;
56269;SDS011;42176;43.240;27.880;2023-05-20T04:23:55;7.18;;;4.45;;
56269;SDS011;42176;43.240;27.880;2023-05-20T04:26:21;8.00;;;4.63;;
56269;SDS011;42176;43.240;27.880;2023-05-20T04:28:46;8.60;;;4.45;;
56269;SDS011;42176;43.240;27.880;2023-05-20T04:31:13;9.90;;;4.80;;
56269;SDS011;42176;43.240;27.880;2023-05-20T04:33:39;7.35;;;4.25;;
56269;SDS011;42176;43.240;27.880;2023-05-20T04:36:14;10.90;;;4.18;;
56269;SDS011;42176;43.240;27.880;2023-05-20T04:38:40;6.65;;;3.90;;
56269;SDS011;42176;43.240;27.880;2023-05-20T04:41:06;6.57;;;4.22;;
56269;SDS011;42176;43.240;27.880;2023-05-20T04:43:32;5.80;;;4.70;;
56269;SDS011;42176;43.240;27.880;2023-05-20T04:45:58;14.73;;;5.82;;
56269;SDS011;42176;43.240;27.880;2023-05-20T04:48:25;6.65;;;4.63;;
56269;SDS011;42176;43.240;27.880;2023-05-20T04:50:51;9.07;;;4.45;;
56269;SDS011;42176;43.240;27.880;2023-05-20T04:53:18;11.35;;;4.97;;
56269;SDS011;42176;43.240;27.880;2023-05-20T04:55:44;8.60;;;4.70;;
56269;SDS011;42176;43.240;27.880;2023-05-20T04:58:10;7.68;;;4.60;;
56269;SDS011;42176;43.240;27.880;2023-05-20T05:00:43;7.90;;;4.78;;
56269;SDS011;42176;43.240;27.880;2023-05-20T05:03:09;5.40;;;4.20;;
56269;SDS011;42176;43.240;27.880;2023-05-20T05:05:37;7.30;;;4.60;;
56269;SDS011;42176;43.240;27.880;2023-05-20T05:08:03;8.90;;;4.65;;
56269;SDS011;42176;43.240;27.880;2023-05-20T05:10:30;8.32;;;4.70;;
56269;SDS011;42176;43.240;27.880;2023-05-20T05:12:56;7.03;;;4.78;;
56269;SDS011;42176;43.240;27.880;2023-05-20T05:15:21;7.40;;;4.68;;
56269;SDS011;42176;43.240;27.880;2023-05-20T05:17:47;10.52;;;5.80;;
56269;SDS011;42176;43.240;27.880;2023-05-20T05:20:12;10.15;;;4.65;;
56269;SDS011;42176;43.240;27.880;2023-05-20T05:22:38;10.18;;;5.75;;
56269;SDS011;42176;43.240;27.880;2023-05-20T05:25:05;9.18;;;5.25;;
56269;SDS011;42176;43.240;27.880;2023-05-20T05:27:32;7.97;;;3.92;;
56269;SDS011;42176;43.240;27.880;2023-05-20T05:29:57;5.45;;;3.30;;
56269;SDS011;42176;43.240;27.880;2023-05-20T05:32:23;6.78;;;5.00;;
56269;SDS011;42176;43.240;27.880;2023-05-20T05:34:48;8.95;;;4.78;;
56269;SDS011;42176;43.240;27.880;2023-05-20T05:37:14;5.57;;;4.00;;
56269;SDS011;42176;43.240;27.880;2023-05-20T05:39:39;10.65;;;5.38;;
56269;SDS011;42176;43.240;27.880;2023-05-20T05:42:05;7.05;;;4.47;;
56269;SDS011;42176;43.240;27.880;2023-05-20T05:44:30;8.07;;;5.30;;
56269;SDS011;42176;43.240;27.880;2023-05-20T05:46:56;7.47;;;4.80;;
56269;SDS011;42176;43.240;27.880;2023-05-20T05:49:21;9.02;;;4.70;;
56269;SDS011;42176;43.240;27.880;2023-05-20T05:51:46;7.75;;;4.38;;
56269;SDS011;42176;43.240;27.880;2023-05-20T05:54:12;6.00;;;4.35;;
56269;SDS011;42176;43.240;27.880;2023-05-20T05:56:37;10.27;;;4.40;;
56269;SDS011;42176;43.240;27.880;2023-05-20T05:59:03;6.60;;;4.30;;
56269;SDS011;42176;43.240;27.880;2023-05-20T06:01:31;8.10;;;4.80;;
56269;SDS011;42176;43.240;27.880;2023-05-20T06:03:57;7.80;;;4.10;;
56269;SDS011;42176;43.240;27.880;2023-05-20T06:06:22;7.20;;;4.22;;
56269;SDS011;42176;43.240;27.880;2023-05-20T06:08:48;8.02;;;4.30;;
56269;SDS011;42176;43.240;27.880;2023-05-20T06:11:13;7.25;;;3.72;;
56269;SDS011;42176;43.240;27.880;2023-05-20T06:13:39;6.57;;;4.00;;
56269;SDS011;42176;43.240;27.880;2023-05-20T06:16:04;5.75;;;4.28;;
56269;SDS011;42176;43.240;27.880;2023-05-20T06:18:30;7.88;;;4.22;;
56269;SDS011;42176;43.240;27.880;2023-05-20T06:20:55;5.88;;;4.03;;
56269;SDS011;42176;43.240;27.880;2023-05-20T06:23:21;7.07;;;3.47;;
56269;SDS011;42176;43.240;27.880;2023-05-20T06:25:47;6.10;;;3.60;;
56269;SDS011;42176;43.240;27.880;2023-05-20T06:28:13;6.13;;;3.95;;
56269;SDS011;42176;43.240;27.880;2023-05-20T06:30:39;7.35;;;3.75;;
56269;SDS011;42176;43.240;27.880;2023-05-20T06:33:05;5.55;;;3.67;;
56269;SDS011;42176;43.240;27.880;2023-05-20T06:35:30;9.82;;;3.67;;
56269;SDS011;42176;43.240;27.880;2023-05-20T06:37:58;4.95;;;3.97;;
56269;SDS011;42176;43.240;27.880;2023-05-20T06:40:25;4.70;;;3.53;;
56269;SDS011;42176;43.240;27.880;2023-05-20T06:42:51;9.25;;;3.92;;
56269;SDS011;42176;43.240;27.880;2023-05-20T06:45:16;4.60;;;2.45;;
56269;SDS011;42176;43.240;27.880;2023-05-20T06:47:42;7.10;;;3.60;;
56269;SDS011;42176;43.240;27.880;2023-05-20T06:50:09;4.68;;;3.22;;
56269;SDS011;42176;43.240;27.880;2023-05-20T06:52:35;4.60;;;3.20;;
56269;SDS011;42176;43.240;27.880;2023-05-20T06:55:00;7.90;;;3.50;;
56269;SDS011;42176;43.240;27.880;2023-05-20T06:57:26;3.22;;;2.60;;
56269;SDS011;42176;43.240;27.880;2023-05-20T06:59:51;4.82;;;3.33;;
56269;SDS011;42176;43.240;27.880;2023-05-20T07:02:17;7.45;;;3.83;;
56269;SDS011;42176;43.240;27.880;2023-05-20T07:04:42;8.77;;;3.53;;
56269;SDS011;42176;43.240;27.880;2023-05-20T07:07:08;5.35;;;3.55;;
56269;SDS011;42176;43.240;27.880;2023-05-20T07:09:34;5.63;;;3.67;;
56269;SDS011;42176;43.240;27.880;2023-05-20T07:11:59;4.43;;;3.20;;
56269;SDS011;42176;43.240;27.880;2023-05-20T07:14:25;9.02;;;3.45;;
56269;SDS011;42176;43.240;27.880;2023-05-20T07:16:51;3.97;;;3.42;;
56269;SDS011;42176;43.240;27.880;2023-05-20T07:19:16;5.18;;;3.75;;
56269;SDS011;42176;43.240;27.880;2023-05-20T07:21:42;5.38;;;3.50;;
56269;SDS011;42176;43.240;27.880;2023-05-20T07:24:07;6.18;;;4.18;;
56269;SDS011;42176;43.240;27.880;2023-05-20T07:26:33;4.90;;;3.80;;
56269;SDS011;42176;43.240;27.880;2023-05-20T07:29:00;6.95;;;3.85;;
56269;SDS011;42176;43.240;27.880;2023-05-20T07:31:27;4.68;;;3.35;;
56269;SDS011;42176;43.240;27.880;2023-05-20T07:33:52;5.20;;;3.58;;
56269;SDS011;42176;43.240;27.880;2023-05-20T07:36:18;12.95;;;4.40;;
56269;SDS011;42176;43.240;27.880;2023-05-20T07:38:43;4.95;;;4.03;;
56269;SDS011;42176;43.240;27.880;2023-05-20T07:41:09;7.47;;;3.83;;
56269;SDS011;42176;43.240;27.880;2023-05-20T07:43:35;6.18;;;4.15;;
56269;SDS011;42176;43.240;27.880;2023-05-20T07:46:01;6.93;;;4.40;;
56269;SDS011;42176;43.240;27.880;2023-05-20T07:48:26;14.32;;;5.03;;
56269;SDS011;42176;43.240;27.880;2023-05-20T07:50:52;5.18;;;4.13;;
56269;SDS011;42176;43.240;27.880;2023-05-20T07:53:17;7.70;;;4.30;;
56269;SDS011;42176;43.240;27.880;2023-05-20T07:55:43;6.55;;;4.97;;
56269;SDS011;42176;43.240;27.880;2023-05-20T08:00:36;5.82;;;4.38;;
56269;SDS011;42176;43.240;27.880;2023-05-20T08:03:01;8.35;;;4.70;;
56269;SDS011;42176;43.240;27.880;2023-05-20T08:05:27;8.43;;;5.13;;
56269;SDS011;42176;43.240;27.880;2023-05-20T08:07:52;7.25;;;4.72;;
56269;SDS011;42176;43.240;27.880;2023-05-20T08:10:18;10.65;;;5.20;;
56269;SDS011;42176;43.240;27.880;2023-05-20T08:12:43;9.05;;;5.47;;
56269;SDS011;42176;43.240;27.880;2023-05-20T08:15:09;6.90;;;5.15;;
56269;SDS011;42176;43.240;27.880;2023-05-20T08:17:34;7.63;;;5.38;;
56269;SDS011;42176;43.240;27.880;2023-05-20T08:20:00;9.52;;;5.68;;
56269;SDS011;42176;43.240;27.880;2023-05-20T08:22:26;9.13;;;5.00;;
56269;SDS011;42176;43.240;27.880;2023-05-20T08:24:51;13.65;;;6.07;;
56269;SDS011;42176;43.240;27.880;2023-05-20T08:27:17;8.85;;;6.22;;
56269;SDS011;42176;43.240;27.880;2023-05-20T08:29:43;9.40;;;6.13;;
56269;SDS011;42176;43.240;27.880;2023-05-20T08:32:09;9.43;;;6.10;;
56269;SDS011;42176;43.240;27.880;2023-05-20T08:34:34;9.20;;;5.97;;
56269;SDS011;42176;43.240;27.880;2023-05-20T08:37:00;11.65;;;6.32;;
56269;SDS011;42176;43.240;27.880;2023-05-20T08:39:26;9.40;;;5.82;;
56269;SDS011;42176;43.240;27.880;2023-05-20T08:41:52;9.60;;;6.25;;
56269;SDS011;42176;43.240;27.880;2023-05-20T08:44:18;17.70;;;7.80;;
56269;SDS011;42176;43.240;27.880;2023-05-20T08:46:45;8.65;;;6.25;;
56269;SDS011;42176;43.240;27.880;2023-05-20T08:49:12;12.48;;;6.72;;
56269;SDS011;42176;43.240;27.880;2023-05-20T08:51:37;12.13;;;6.80;;
56269;SDS011;42176;43.240;27.880;2023-05-20T08:54:03;13.43;;;6.82;;
56269;SDS011;42176;43.240;27.880;2023-05-20T08:56:29;7.68;;;4.55;;
56269;SDS011;42176;43.240;27.880;2023-05-20T08:58:56;17.23;;;5.53;;
56269;SDS011;42176;43.240;27.880;2023-05-20T09:01:24;10.43;;;6.55;;
56269;SDS011;42176;43.240;27.880;2023-05-20T09:03:50;10.73;;;7.22;;
56269;SDS011;42176;43.240;27.880;2023-05-20T09:06:17;12.77;;;6.43;;
56269;SDS011;42176;43.240;27.880;2023-05-20T09:08:47;13.40;;;6.38;;
56269;SDS011;42176;43.240;27.880;2023-05-20T09:11:14;14.68;;;8.23;;
56269;SDS011;42176;43.240;27.880;2023-05-20T09:13:40;10.77;;;5.97;;
56269;SDS011;42176;43.240;27.880;2023-05-20T09:16:05;4.90;;;3.45;;
56269;SDS011;42176;43.240;27.880;2023-05-20T09:18:31;14.40;;;7.18;;
56269;SDS011;42176;43.240;27.880;2023-05-20T09:20:57;10.07;;;7.28;;
56269;SDS011;42176;43.240;27.880;2023-05-20T09:23:22;14.73;;;7.00;;
56269;SDS011;42176;43.240;27.880;2023-05-20T09:25:50;10.77;;;7.28;;
56269;SDS011;42176;43.240;27.880;2023-05-20T09:28:21;10.85;;;4.40;;
56269;SDS011;42176;43.240;27.880;2023-05-20T09:33:15;12.98;;;8.00;;
56269;SDS011;42176;43.240;27.880;2023-05-20T09:35:42;9.55;;;6.70;;
56269;SDS011;42176;43.240;27.880;2023-05-20T09:38:07;11.13;;;7.30;;
56269;SDS011;42176;43.240;27.880;2023-05-20T09:40:35;10.52;;;7.15;;
56269;SDS011;42176;43.240;27.880;2023-05-20T09:43:05;11.80;;;7.18;;
56269;SDS011;42176;43.240;27.880;2023-05-20T09:45:35;12.07;;;7.68;;
56269;SDS011;42176;43.240;27.880;2023-05-20T09:48:02;15.68;;;6.82;;
56269;SDS011;42176;43.240;27.880;2023-05-20T09:50:32;9.90;;;6.68;;
56269;SDS011;42176;43.240;27.880;2023-05-20T09:53:02;11.77;;;6.78;;
56269;SDS011;42176;43.240;27.880;2023-05-20T09:55:28;10.50;;;6.68;;
56269;SDS011;42176;43.240;27.880;2023-05-20T09:57:54;13.95;;;7.55;;
56269;SDS011;42176;43.240;27.880;2023-05-20T10:00:20;11.18;;;7.38;;
56269;SDS011;42176;43.240;27.880;2023-05-20T10:02:46;12.45;;;6.80;;
56269;SDS011;42176;43.240;27.880;2023-05-20T10:05:21;10.73;;;6.47;;
56269;SDS011;42176;43.240;27.880;2023-05-20T10:15:49;12.30;;;6.05;;
56269;SDS011;42176;43.240;27.880;2023-05-20T10:21:13;10.18;;;6.68;;
56269;SDS011;42176;43.240;27.880;2023-05-20T10:23:39;8.13;;;5.30;;
56269;SDS011;42176;43.240;27.880;2023-05-20T10:26:05;7.63;;;5.70;;
56269;SDS011;42176;43.240;27.880;2023-05-20T10:28:32;7.45;;;3.42;;
56269;SDS011;42176;43.240;27.880;2023-05-20T10:31:14;9.40;;;3.53;;
56269;SDS011;42176;43.240;27.880;2023-05-20T10:33:45;5.28;;;3.33;;
56269;SDS011;42176;43.240;27.880;2023-05-20T10:36:28;5.43;;;3.40;;
56269;SDS011;42176;43.240;27.880;2023-05-20T10:38:57;5.00;;;2.63;;
56269;SDS011;42176;43.240;27.880;2023-05-20T10:41:23;5.90;;;3.00;;
56269;SDS011;42176;43.240;27.880;2023-05-20T10:44:05;6.30;;;3.47;;
56269;SDS011;42176;43.240;27.880;2023-05-20T10:46:32;4.32;;;3.13;;
56269;SDS011;42176;43.240;27.880;2023-05-20T10:48:58;7.07;;;3.20;;
56269;SDS011;42176;43.240;27.880;2023-05-20T10:51:24;5.75;;;2.55;;
56269;SDS011;42176;43.240;27.880;2023-05-20T10:53:53;9.02;;;3.03;;
56269;SDS011;42176;43.240;27.880;2023-05-20T10:56:20;7.47;;;3.00;;
56269;SDS011;42176;43.240;27.880;2023-05-20T10:58:47;5.40;;;2.95;;
56269;SDS011;42176;43.240;27.880;2023-05-20T11:01:14;4.03;;;3.10;;
56269;SDS011;42176;43.240;27.880;2023-05-20T11:03:40;2.67;;;2.30;;
56269;SDS011;42176;43.240;27.880;2023-05-20T11:06:11;7.90;;;2.90;;
56269;SDS011;42176;43.240;27.880;2023-05-20T11:08:37;5.43;;;2.53;;
56269;SDS011;42176;43.240;27.880;2023-05-20T11:11:02;8.88;;;3.22;;
56269;SDS011;42176;43.240;27.880;2023-05-20T11:13:28;10.07;;;2.78;;
56269;SDS011;42176;43.240;27.880;2023-05-20T11:15:55;5.32;;;2.25;;
56269;SDS011;42176;43.240;27.880;2023-05-20T11:18:22;7.65;;;3.20;;
56269;SDS011;42176;43.240;27.880;2023-05-20T11:20:48;6.43;;;2.65;;
56269;SDS011;42176;43.240;27.880;2023-05-20T11:23:15;7.38;;;2.70;;
56269;SDS011;42176;43.240;27.880;2023-05-20T11:25:40;6.32;;;3.17;;
56269;SDS011;42176;43.240;27.880;2023-05-20T11:28:12;8.98;;;2.67;;
56269;SDS011;42176;43.240;27.880;2023-05-20T11:30:38;6.10;;;2.45;;
56269;SDS011;42176;43.240;27.880;2023-05-20T11:33:05;5.72;;;2.35;;
56269;SDS011;42176;43.240;27.880;2023-05-20T11:35:31;3.65;;;2.40;;
56269;SDS011;42176;43.240;27.880;2023-05-20T11:38:01;10.80;;;2.75;;
56269;SDS011;42176;43.240;27.880;2023-05-20T11:40:27;5.22;;;2.50;;
56269;SDS011;42176;43.240;27.880;2023-05-20T11:42:53;11.23;;;1.95;;
56269;SDS011;42176;43.240;27.880;2023-05-20T11:45:20;3.88;;;1.80;;
56269;SDS011;42176;43.240;27.880;2023-05-20T11:47:56;5.70;;;2.65;;
56269;SDS011;42176;43.240;27.880;2023-05-20T11:50:25;5.85;;;2.90;;
56269;SDS011;42176;43.240;27.880;2023-05-20T11:52:56;9.90;;;2.15;;
56269;SDS011;42176;43.240;27.880;2023-05-20T11:55:22;6.95;;;2.83;;
56269;SDS011;42176;43.240;27.880;2023-05-20T11:57:49;4.22;;;2.00;;
56269;SDS011;42176;43.240;27.880;2023-05-20T12:00:14;8.90;;;2.65;;
56269;SDS011;42176;43.240;27.880;2023-05-20T12:02:40;3.08;;;2.15;;
56269;SDS011;42176;43.240;27.880;2023-05-20T12:05:06;7.75;;;3.08;;
56269;SDS011;42176;43.240;27.880;2023-05-20T12:07:32;3.60;;;2.05;;
56269;SDS011;42176;43.240;27.880;2023-05-20T12:09:57;8.60;;;3.00;;
56269;SDS011;42176;43.240;27.880;2023-05-20T12:12:23;4.53;;;2.63;;
56269;SDS011;42176;43.240;27.880;2023-05-20T12:14:49;4.38;;;2.65;;
56269;SDS011;42176;43.240;27.880;2023-05-20T12:17:15;6.90;;;2.30;;
56269;SDS011;42176;43.240;27.880;2023-05-20T12:19:42;4.40;;;2.80;;
56269;SDS011;42176;43.240;27.880;2023-05-20T12:22:07;5.28;;;2.78;;
56269;SDS011;42176;43.240;27.880;2023-05-20T12:24:33;7.50;;;2.42;;
56269;SDS011;42176;43.240;27.880;2023-05-20T12:26:58;7.85;;;2.35;;
56269;SDS011;42176;43.240;27.880;2023-05-20T12:29:23;3.33;;;2.50;;
56269;SDS011;42176;43.240;27.880;2023-05-20T12:31:49;7.22;;;2.75;;
56269;SDS011;42176;43.240;27.880;2023-05-20T12:34:14;9.00;;;2.55;;
56269;SDS011;42176;43.240;27.880;2023-05-20T12:36:40;7.55;;;3.03;;
56269;SDS011;42176;43.240;27.880;2023-05-20T12:39:08;8.82;;;2.63;;
56269;SDS011;42176;43.240;27.880;2023-05-20T12:41:35;9.15;;;3.25;;
56269;SDS011;42176;43.240;27.880;2023-05-20T12:44:00;6.15;;;2.85;;
56269;SDS011;42176;43.240;27.880;2023-05-20T12:46:25;21.15;;;4.38;;
56269;SDS011;42176;43.240;27.880;2023-05-20T12:48:51;4.38;;;2.58;;
56269;SDS011;42176;43.240;27.880;2023-05-20T12:51:17;7.32;;;3.33;;
56269;SDS011;42176;43.240;27.880;2023-05-20T12:53:44;6.05;;;3.00;;
56269;SDS011;42176;43.240;27.880;2023-05-20T12:56:10;6.30;;;2.63;;
56269;SDS011;42176;43.240;27.880;2023-05-20T12:58:36;3.15;;;2.63;;
56269;SDS011;42176;43.240;27.880;2023-05-20T13:01:02;9.00;;;2.80;;
56269;SDS011;42176;43.240;27.880;2023-05-20T13:03:28;5.63;;;2.40;;
56269;SDS011;42176;43.240;27.880;2023-05-20T13:05:54;7.82;;;2.70;;
56269;SDS011;42176;43.240;27.880;2023-05-20T13:08:20;5.97;;;2.20;;
56269;SDS011;42176;43.240;27.880;2023-05-20T13:10:45;4.50;;;2.35;;
56269;SDS011;42176;43.240;27.880;2023-05-20T13:13:11;3.78;;;2.25;;
56269;SDS011;42176;43.240;27.880;2023-05-20T13:15:37;7.50;;;2.42;;
56269;SDS011;42176;43.240;27.880;2023-05-20T13:18:03;2.08;;;1.60;;
56269;SDS011;42176;43.240;27.880;2023-05-20T13:20:30;8.07;;;3.97;;
56269;SDS011;42176;43.240;27.880;2023-05-20T13:22:56;2.55;;;2.20;;
56269;SDS011;42176;43.240;27.880;2023-05-20T13:25:22;5.15;;;2.60;;
56269;SDS011;42176;43.240;27.880;2023-05-20T13:27:47;6.30;;;2.47;;
56269;SDS011;42176;43.240;27.880;2023-05-20T13:30:13;11.35;;;2.67;;
56269;SDS011;42176;43.240;27.880;2023-05-20T13:32:38;7.70;;;2.90;;
56269;SDS011;42176;43.240;27.880;2023-05-20T13:35:04;5.88;;;3.08;;
56269;SDS011;42176;43.240;27.880;2023-05-20T13:37:30;4.85;;;3.08;;
56269;SDS011;42176;43.240;27.880;2023-05-20T13:39:55;5.57;;;3.45;;
56269;SDS011;42176;43.240;27.880;2023-05-20T13:42:20;10.57;;;3.55;;
56269;SDS011;42176;43.240;27.880;2023-05-20T13:44:46;7.68;;;3.38;;
56269;SDS011;42176;43.240;27.880;2023-05-20T13:47:12;7.95;;;2.83;;
56269;SDS011;42176;43.240;27.880;2023-05-20T13:49:37;4.72;;;3.08;;
56269;SDS011;42176;43.240;27.880;2023-05-20T13:52:03;4.30;;;2.30;;
56269;SDS011;42176;43.240;27.880;2023-05-20T13:54:28;10.15;;;3.08;;
56269;SDS011;42176;43.240;27.880;2023-05-20T13:56:54;6.88;;;3.40;;
56269;SDS011;42176;43.240;27.880;2023-05-20T13:59:20;8.45;;;3.03;;
56269;SDS011;42176;43.240;27.880;2023-05-20T14:01:45;4.88;;;3.17;;
56269;SDS011;42176;43.240;27.880;2023-05-20T14:04:11;3.95;;;2.80;;
56269;SDS011;42176;43.240;27.880;2023-05-20T14:06:37;10.20;;;3.80;;
56269;SDS011;42176;43.240;27.880;2023-05-20T14:09:04;9.13;;;3.88;;
56269;SDS011;42176;43.240;27.880;2023-05-20T14:11:32;6.53;;;3.55;;
56269;SDS011;42176;43.240;27.880;2023-05-20T14:13:57;6.60;;;3.47;;
56269;SDS011;42176;43.240;27.880;2023-05-20T14:16:22;8.82;;;2.85;;
56269;SDS011;42176;43.240;27.880;2023-05-20T14:18:48;4.45;;;3.55;;
56269;SDS011;42176;43.240;27.880;2023-05-20T14:21:13;11.25;;;4.68;;
56269;SDS011;42176;43.240;27.880;2023-05-20T14:23:39;8.55;;;3.47;;
56269;SDS011;42176;43.240;27.880;2023-05-20T14:26:09;5.47;;;3.22;;
56269;SDS011;42176;43.240;27.880;2023-05-20T14:28:36;8.30;;;3.38;;
56269;SDS011;42176;43.240;27.880;2023-05-20T14:31:02;5.32;;;3.20;;
56269;SDS011;42176;43.240;27.880;2023-05-20T14:33:28;6.63;;;3.15;;
56269;SDS011;42176;43.240;27.880;2023-05-20T14:35:54;10.93;;;3.53;;
56269;SDS011;42176;43.240;27.880;2023-05-20T14:38:19;9.13;;;3.25;;
56269;SDS011;42176;43.240;27.880;2023-05-20T14:40:45;7.97;;;2.95;;
56269;SDS011;42176;43.240;27.880;2023-05-20T14:43:11;7.22;;;3.65;;
56269;SDS011;42176;43.240;27.880;2023-05-20T14:45:37;3.88;;;3.20;;